sensor_id;sensor_type;location;lat;lon;timestamp;P1;durP1;ratioP1;P2;durP2;ratioP2
75009;SDS011;63564;46.840;18.336;2023-01-10T00:00:25;3.50;;;1.60;;
75009;SDS011;63564;46.840;18.336;2023-01-10T00:03:31;5.95;;;2.00;;
75009;SDS011;63564;46.840;18.336;2023-01-10T00:06:31;3.90;;;1.97;;
75009;SDS011;63564;46.840;18.336;2023-01-10T00:09:32;4.35;;;2.35;;
75009;SDS011;63564;46.840;18.336;2023-01-10T00:12:32;6.72;;;2.33;;
75009;SDS011;63564;46.840;18.336;2023-01-10T00:15:52;10.60;;;2.53;;
75009;SDS011;63564;46.840;18.336;2023-01-10T00:18:53;4.90;;;2.10;;
75009;SDS011;63564;46.840;18.336;2023-01-10T00:21:54;5.97;;;2.33;;
75009;SDS011;63564;46.840;18.336;2023-01-10T00:24:56;3.75;;;1.75;;
75009;SDS011;63564;46.840;18.336;2023-01-10T00:27:56;4.53;;;1.97;;
75009;SDS011;63564;46.840;18.336;2023-01-10T00:31:15;3.75;;;1.67;;
75009;SDS011;63564;46.840;18.336;2023-01-10T00:34:16;3.13;;;1.30;;
75009;SDS011;63564;46.840;18.336;2023-01-10T00:37:16;3.20;;;1.60;;
75009;SDS011;63564;46.840;18.336;2023-01-10T00:40:17;3.78;;;1.80;;
75009;SDS011;63564;46.840;18.336;2023-01-10T00:43:17;3.38;;;1.50;;
75009;SDS011;63564;46.840;18.336;2023-01-10T00:46:36;3.23;;;1.37;;
75009;SDS011;63564;46.840;18.336;2023-01-10T00:49:37;2.97;;;1.45;;
75009;SDS011;63564;46.840;18.336;2023-01-10T00:52:37;3.17;;;1.60;;
75009;SDS011;63564;46.840;18.336;2023-01-10T00:55:38;3.37;;;1.40;;
75009;SDS011;63564;46.840;18.336;2023-01-10T00:58:39;3.53;;;1.80;;
75009;SDS011;63564;46.840;18.336;2023-01-10T01:01:39;2.87;;;1.53;;
75009;SDS011;63564;46.840;18.336;2023-01-10T01:04:40;3.83;;;1.70;;
75009;SDS011;63564;46.840;18.336;2023-01-10T01:07:40;3.60;;;1.60;;
75009;SDS011;63564;46.840;18.336;2023-01-10T01:10:41;2.50;;;1.20;;
75009;SDS011;63564;46.840;18.336;2023-01-10T01:13:41;2.67;;;1.40;;
75009;SDS011;63564;46.840;18.336;2023-01-10T01:16:41;1.23;;;0.90;;
75009;SDS011;63564;46.840;18.336;2023-01-10T01:19:42;3.07;;;1.17;;
75009;SDS011;63564;46.840;18.336;2023-01-10T01:22:42;1.60;;;0.83;;
75009;SDS011;63564;46.840;18.336;2023-01-10T01:25:43;1.43;;;0.87;;
75009;SDS011;63564;46.840;18.336;2023-01-10T01:28:43;1.67;;;1.07;;
75009;SDS011;63564;46.840;18.336;2023-01-10T01:31:43;2.58;;;1.10;;
75009;SDS011;63564;46.840;18.336;2023-01-10T01:34:44;3.83;;;1.55;;
75009;SDS011;63564;46.840;18.336;2023-01-10T01:37:44;1.87;;;0.90;;
75009;SDS011;63564;46.840;18.336;2023-01-10T01:40:45;1.77;;;1.03;;
75009;SDS011;63564;46.840;18.336;2023-01-10T01:57:59;3.38;;;2.28;;
75009;SDS011;63564;46.840;18.336;2023-01-10T02:01:05;5.57;;;2.38;;
75009;SDS011;63564;46.840;18.336;2023-01-10T02:04:08;5.32;;;2.40;;
75009;SDS011;63564;46.840;18.336;2023-01-10T02:07:12;3.00;;;1.33;;
75009;SDS011;63564;46.840;18.336;2023-01-10T02:13:21;4.97;;;1.70;;
75009;SDS011;63564;46.840;18.336;2023-01-10T02:16:24;2.58;;;1.15;;
75009;SDS011;63564;46.840;18.336;2023-01-10T02:26:11;2.72;;;1.42;;
75009;SDS011;63564;46.840;18.336;2023-01-10T02:32:48;2.47;;;1.17;;
75009;SDS011;63564;46.840;18.336;2023-01-10T02:39:41;2.53;;;1.13;;
75009;SDS011;63564;46.840;18.336;2023-01-10T02:46:10;2.53;;;1.20;;
75009;SDS011;63564;46.840;18.336;2023-01-10T02:49:15;2.25;;;0.90;;
75009;SDS011;63564;46.840;18.336;2023-01-10T02:52:22;2.80;;;1.27;;
75009;SDS011;63564;46.840;18.336;2023-01-10T02:55:27;2.90;;;1.50;;
75009;SDS011;63564;46.840;18.336;2023-01-10T03:05:42;4.20;;;1.80;;
75009;SDS011;63564;46.840;18.336;2023-01-10T03:12:11;4.13;;;1.60;;
75009;SDS011;63564;46.840;18.336;2023-01-10T03:15:18;2.47;;;1.25;;
75009;SDS011;63564;46.840;18.336;2023-01-10T03:18:21;3.10;;;1.60;;
75009;SDS011;63564;46.840;18.336;2023-01-10T03:21:25;2.95;;;1.45;;
75009;SDS011;63564;46.840;18.336;2023-01-10T03:24:49;3.47;;;1.60;;
75009;SDS011;63564;46.840;18.336;2023-01-10T03:30:59;2.63;;;1.33;;
75009;SDS011;63564;46.840;18.336;2023-01-10T03:34:04;3.13;;;1.25;;
75009;SDS011;63564;46.840;18.336;2023-01-10T03:37:13;1.83;;;0.90;;
75009;SDS011;63564;46.840;18.336;2023-01-10T03:43:44;2.38;;;1.00;;
75009;SDS011;63564;46.840;18.336;2023-01-10T03:50:49;4.53;;;2.03;;
75009;SDS011;63564;46.840;18.336;2023-01-10T03:53:50;3.17;;;1.40;;
75009;SDS011;63564;46.840;18.336;2023-01-10T03:56:51;2.47;;;1.38;;
75009;SDS011;63564;46.840;18.336;2023-01-10T03:59:52;3.10;;;1.33;;
75009;SDS011;63564;46.840;18.336;2023-01-10T04:02:57;2.33;;;1.30;;
75009;SDS011;63564;46.840;18.336;2023-01-10T04:05:58;3.35;;;1.30;;
75009;SDS011;63564;46.840;18.336;2023-01-10T04:08:58;2.20;;;1.03;;
75009;SDS011;63564;46.840;18.336;2023-01-10T04:11:59;3.33;;;1.40;;
75009;SDS011;63564;46.840;18.336;2023-01-10T04:14:59;4.00;;;1.30;;
75009;SDS011;63564;46.840;18.336;2023-01-10T04:18:00;2.57;;;1.37;;
75009;SDS011;63564;46.840;18.336;2023-01-10T04:21:00;2.38;;;1.10;;
75009;SDS011;63564;46.840;18.336;2023-01-10T04:24:01;3.10;;;1.40;;
75009;SDS011;63564;46.840;18.336;2023-01-10T04:27:01;4.13;;;1.20;;
75009;SDS011;63564;46.840;18.336;2023-01-10T04:30:02;2.03;;;1.15;;
75009;SDS011;63564;46.840;18.336;2023-01-10T04:33:04;3.17;;;1.30;;
75009;SDS011;63564;46.840;18.336;2023-01-10T04:36:06;2.95;;;1.25;;
75009;SDS011;63564;46.840;18.336;2023-01-10T04:39:06;1.40;;;0.97;;
75009;SDS011;63564;46.840;18.336;2023-01-10T04:42:07;2.10;;;1.13;;
75009;SDS011;63564;46.840;18.336;2023-01-10T04:45:07;2.47;;;1.10;;
75009;SDS011;63564;46.840;18.336;2023-01-10T04:48:10;2.33;;;1.15;;
75009;SDS011;63564;46.840;18.336;2023-01-10T04:51:11;2.60;;;1.60;;
75009;SDS011;63564;46.840;18.336;2023-01-10T04:54:11;3.10;;;1.63;;
75009;SDS011;63564;46.840;18.336;2023-01-10T04:57:11;2.00;;;1.10;;
75009;SDS011;63564;46.840;18.336;2023-01-10T05:00:12;3.33;;;1.53;;
75009;SDS011;63564;46.840;18.336;2023-01-10T05:03:12;3.30;;;1.70;;
75009;SDS011;63564;46.840;18.336;2023-01-10T05:06:15;2.63;;;1.47;;
75009;SDS011;63564;46.840;18.336;2023-01-10T05:09:16;2.90;;;1.20;;
75009;SDS011;63564;46.840;18.336;2023-01-10T05:12:16;2.63;;;1.13;;
75009;SDS011;63564;46.840;18.336;2023-01-10T05:15:17;3.03;;;1.40;;
75009;SDS011;63564;46.840;18.336;2023-01-10T05:18:19;2.38;;;1.58;;
75009;SDS011;63564;46.840;18.336;2023-01-10T05:21:20;3.00;;;1.20;;
75009;SDS011;63564;46.840;18.336;2023-01-10T05:24:20;2.30;;;1.20;;
75009;SDS011;63564;46.840;18.336;2023-01-10T05:27:21;3.87;;;1.60;;
75009;SDS011;63564;46.840;18.336;2023-01-10T05:30:21;1.63;;;1.20;;
75009;SDS011;63564;46.840;18.336;2023-01-10T05:33:22;3.25;;;1.38;;
75009;SDS011;63564;46.840;18.336;2023-01-10T05:36:22;2.30;;;1.40;;
75009;SDS011;63564;46.840;18.336;2023-01-10T05:39:23;3.40;;;1.63;;
75009;SDS011;63564;46.840;18.336;2023-01-10T05:42:23;3.10;;;1.40;;
75009;SDS011;63564;46.840;18.336;2023-01-10T05:45:24;2.93;;;1.40;;
75009;SDS011;63564;46.840;18.336;2023-01-10T05:48:24;3.27;;;1.63;;
75009;SDS011;63564;46.840;18.336;2023-01-10T05:51:24;3.75;;;1.60;;
75009;SDS011;63564;46.840;18.336;2023-01-10T05:54:25;2.93;;;1.43;;
75009;SDS011;63564;46.840;18.336;2023-01-10T05:57:25;2.83;;;1.30;;
75009;SDS011;63564;46.840;18.336;2023-01-10T06:00:26;2.73;;;1.30;;
75009;SDS011;63564;46.840;18.336;2023-01-10T06:03:27;3.60;;;2.00;;
75009;SDS011;63564;46.840;18.336;2023-01-10T06:06:27;3.33;;;1.77;;
75009;SDS011;63564;46.840;18.336;2023-01-10T06:09:27;2.57;;;1.40;;
75009;SDS011;63564;46.840;18.336;2023-01-10T06:12:28;2.20;;;1.30;;
75009;SDS011;63564;46.840;18.336;2023-01-10T06:15:28;2.47;;;1.50;;
75009;SDS011;63564;46.840;18.336;2023-01-10T06:18:28;3.47;;;1.60;;
75009;SDS011;63564;46.840;18.336;2023-01-10T06:21:29;2.67;;;1.20;;
75009;SDS011;63564;46.840;18.336;2023-01-10T06:24:29;2.75;;;1.25;;
75009;SDS011;63564;46.840;18.336;2023-01-10T06:27:30;3.40;;;1.80;;
75009;SDS011;63564;46.840;18.336;2023-01-10T06:30:30;2.87;;;1.50;;
75009;SDS011;63564;46.840;18.336;2023-01-10T06:33:31;2.90;;;2.03;;
75009;SDS011;63564;46.840;18.336;2023-01-10T06:36:31;3.83;;;1.77;;
75009;SDS011;63564;46.840;18.336;2023-01-10T06:39:31;3.20;;;1.70;;
75009;SDS011;63564;46.840;18.336;2023-01-10T06:42:32;3.65;;;1.50;;
75009;SDS011;63564;46.840;18.336;2023-01-10T06:45:32;3.87;;;1.60;;
75009;SDS011;63564;46.840;18.336;2023-01-10T06:48:33;3.23;;;1.80;;
75009;SDS011;63564;46.840;18.336;2023-01-10T06:51:33;4.30;;;1.77;;
75009;SDS011;63564;46.840;18.336;2023-01-10T06:54:33;3.83;;;2.10;;
75009;SDS011;63564;46.840;18.336;2023-01-10T06:57:34;5.53;;;2.30;;
75009;SDS011;63564;46.840;18.336;2023-01-10T07:00:34;4.13;;;2.37;;
75009;SDS011;63564;46.840;18.336;2023-01-10T07:03:34;4.33;;;2.20;;
75009;SDS011;63564;46.840;18.336;2023-01-10T07:06:35;5.88;;;2.45;;
75009;SDS011;63564;46.840;18.336;2023-01-10T07:09:38;5.30;;;2.30;;
75009;SDS011;63564;46.840;18.336;2023-01-10T07:12:38;6.27;;;3.50;;
75009;SDS011;63564;46.840;18.336;2023-01-10T07:15:38;6.13;;;3.40;;
75009;SDS011;63564;46.840;18.336;2023-01-10T07:18:39;4.85;;;2.22;;
75009;SDS011;63564;46.840;18.336;2023-01-10T07:21:41;5.10;;;2.20;;
75009;SDS011;63564;46.840;18.336;2023-01-10T07:24:41;5.55;;;2.67;;
75009;SDS011;63564;46.840;18.336;2023-01-10T07:27:41;7.60;;;3.35;;
75009;SDS011;63564;46.840;18.336;2023-01-10T07:30:42;5.43;;;2.60;;
75009;SDS011;63564;46.840;18.336;2023-01-10T07:33:42;4.77;;;2.30;;
75009;SDS011;63564;46.840;18.336;2023-01-10T07:36:43;7.93;;;3.37;;
75009;SDS011;63564;46.840;18.336;2023-01-10T07:39:43;5.00;;;2.73;;
75009;SDS011;63564;46.840;18.336;2023-01-10T07:42:44;5.07;;;2.40;;
75009;SDS011;63564;46.840;18.336;2023-01-10T07:45:44;4.80;;;2.30;;
75009;SDS011;63564;46.840;18.336;2023-01-10T07:48:44;4.97;;;2.47;;
75009;SDS011;63564;46.840;18.336;2023-01-10T07:51:46;4.72;;;1.92;;
75009;SDS011;63564;46.840;18.336;2023-01-10T07:54:46;5.23;;;2.30;;
75009;SDS011;63564;46.840;18.336;2023-01-10T07:57:48;3.70;;;1.83;;
75009;SDS011;63564;46.840;18.336;2023-01-10T08:00:49;4.43;;;2.05;;
75009;SDS011;63564;46.840;18.336;2023-01-10T08:03:50;3.50;;;1.85;;
75009;SDS011;63564;46.840;18.336;2023-01-10T08:06:52;3.77;;;1.77;;
75009;SDS011;63564;46.840;18.336;2023-01-10T08:09:53;3.25;;;1.60;;
75009;SDS011;63564;46.840;18.336;2023-01-10T08:12:54;3.00;;;1.40;;
75009;SDS011;63564;46.840;18.336;2023-01-10T08:15:54;3.70;;;2.10;;
75009;SDS011;63564;46.840;18.336;2023-01-10T08:18:55;3.93;;;1.80;;
75009;SDS011;63564;46.840;18.336;2023-01-10T08:21:55;3.63;;;1.90;;
75009;SDS011;63564;46.840;18.336;2023-01-10T08:24:56;4.00;;;2.17;;
75009;SDS011;63564;46.840;18.336;2023-01-10T08:27:56;5.28;;;2.38;;
75009;SDS011;63564;46.840;18.336;2023-01-10T08:30:56;4.50;;;2.10;;
75009;SDS011;63564;46.840;18.336;2023-01-10T08:33:57;3.53;;;1.60;;
75009;SDS011;63564;46.840;18.336;2023-01-10T08:36:57;5.23;;;2.10;;
75009;SDS011;63564;46.840;18.336;2023-01-10T08:39:57;3.43;;;1.50;;
75009;SDS011;63564;46.840;18.336;2023-01-10T08:42:59;3.20;;;1.90;;
75009;SDS011;63564;46.840;18.336;2023-01-10T08:46:00;3.63;;;1.55;;
75009;SDS011;63564;46.840;18.336;2023-01-10T08:49:00;2.97;;;1.70;;
75009;SDS011;63564;46.840;18.336;2023-01-10T08:52:01;3.90;;;2.17;;
75009;SDS011;63564;46.840;18.336;2023-01-10T08:55:01;5.50;;;3.05;;
75009;SDS011;63564;46.840;18.336;2023-01-10T08:58:02;4.30;;;1.70;;
75009;SDS011;63564;46.840;18.336;2023-01-10T09:01:03;4.20;;;2.03;;
75009;SDS011;63564;46.840;18.336;2023-01-10T09:04:04;2.85;;;1.50;;
75009;SDS011;63564;46.840;18.336;2023-01-10T09:07:05;5.13;;;2.37;;
75009;SDS011;63564;46.840;18.336;2023-01-10T09:10:06;4.73;;;2.43;;
75009;SDS011;63564;46.840;18.336;2023-01-10T09:13:07;2.85;;;1.50;;
75009;SDS011;63564;46.840;18.336;2023-01-10T09:16:08;3.07;;;1.73;;
75009;SDS011;63564;46.840;18.336;2023-01-10T09:19:09;3.45;;;1.88;;
75009;SDS011;63564;46.840;18.336;2023-01-10T09:22:09;7.07;;;1.80;;
75009;SDS011;63564;46.840;18.336;2023-01-10T09:25:10;2.93;;;1.63;;
75009;SDS011;63564;46.840;18.336;2023-01-10T09:28:10;3.65;;;1.63;;
75009;SDS011;63564;46.840;18.336;2023-01-10T09:31:11;3.80;;;1.53;;
75009;SDS011;63564;46.840;18.336;2023-01-10T09:34:11;2.73;;;1.50;;
75009;SDS011;63564;46.840;18.336;2023-01-10T09:37:12;4.33;;;1.80;;
75009;SDS011;63564;46.840;18.336;2023-01-10T09:40:13;3.83;;;1.57;;
75009;SDS011;63564;46.840;18.336;2023-01-10T09:43:21;3.78;;;1.58;;
75009;SDS011;63564;46.840;18.336;2023-01-10T09:46:41;2.25;;;1.10;;
75009;SDS011;63564;46.840;18.336;2023-01-10T09:53:35;3.13;;;1.20;;
75009;SDS011;63564;46.840;18.336;2023-01-10T09:56:41;2.88;;;1.30;;
75009;SDS011;63564;46.840;18.336;2023-01-10T09:59:42;3.92;;;1.30;;
75009;SDS011;63564;46.840;18.336;2023-01-10T10:02:44;3.10;;;1.53;;
75009;SDS011;63564;46.840;18.336;2023-01-10T10:05:50;2.55;;;1.10;;
75009;SDS011;63564;46.840;18.336;2023-01-10T10:08:51;2.35;;;1.38;;
75009;SDS011;63564;46.840;18.336;2023-01-10T10:12:08;4.55;;;1.63;;
75009;SDS011;63564;46.840;18.336;2023-01-10T10:16:06;2.28;;;1.10;;
75009;SDS011;63564;46.840;18.336;2023-01-10T10:32:32;4.53;;;1.65;;
75009;SDS011;63564;46.840;18.336;2023-01-10T10:39:36;3.30;;;1.33;;
75009;SDS011;63564;46.840;18.336;2023-01-10T10:42:44;3.38;;;1.38;;
75009;SDS011;63564;46.840;18.336;2023-01-10T10:45:51;4.50;;;1.70;;
75009;SDS011;63564;46.840;18.336;2023-01-10T10:48:56;3.00;;;1.40;;
75009;SDS011;63564;46.840;18.336;2023-01-10T10:52:02;4.57;;;1.95;;
75009;SDS011;63564;46.840;18.336;2023-01-10T10:55:18;3.83;;;1.70;;
75009;SDS011;63564;46.840;18.336;2023-01-10T10:58:22;4.90;;;1.73;;
75009;SDS011;63564;46.840;18.336;2023-01-10T11:01:25;3.57;;;1.50;;
75009;SDS011;63564;46.840;18.336;2023-01-10T11:04:25;3.00;;;1.50;;
75009;SDS011;63564;46.840;18.336;2023-01-10T11:07:28;3.08;;;1.40;;
75009;SDS011;63564;46.840;18.336;2023-01-10T11:10:33;3.33;;;1.50;;
75009;SDS011;63564;46.840;18.336;2023-01-10T11:13:42;3.70;;;1.50;;
75009;SDS011;63564;46.840;18.336;2023-01-10T11:16:55;2.85;;;1.50;;
75009;SDS011;63564;46.840;18.336;2023-01-10T11:20:27;3.55;;;1.40;;
75009;SDS011;63564;46.840;18.336;2023-01-10T11:26:40;4.22;;;1.60;;
75009;SDS011;63564;46.840;18.336;2023-01-10T11:29:47;2.37;;;1.30;;
75009;SDS011;63564;46.840;18.336;2023-01-10T11:32:53;3.78;;;1.60;;
75009;SDS011;63564;46.840;18.336;2023-01-10T11:39:02;4.93;;;2.20;;
75009;SDS011;63564;46.840;18.336;2023-01-10T11:45:24;4.20;;;2.08;;
75009;SDS011;63564;46.840;18.336;2023-01-10T11:48:32;4.67;;;2.13;;
75009;SDS011;63564;46.840;18.336;2023-01-10T11:51:47;7.18;;;3.33;;
75009;SDS011;63564;46.840;18.336;2023-01-10T11:54:50;4.10;;;2.03;;
75009;SDS011;63564;46.840;18.336;2023-01-10T11:57:54;3.30;;;1.50;;
75009;SDS011;63564;46.840;18.336;2023-01-10T12:01:04;3.45;;;1.70;;
75009;SDS011;63564;46.840;18.336;2023-01-10T12:04:05;3.38;;;1.90;;
75009;SDS011;63564;46.840;18.336;2023-01-10T12:07:07;4.33;;;2.23;;
75009;SDS011;63564;46.840;18.336;2023-01-10T12:10:11;5.40;;;2.40;;
75009;SDS011;63564;46.840;18.336;2023-01-10T12:13:20;4.65;;;2.25;;
75009;SDS011;63564;46.840;18.336;2023-01-10T12:16:22;3.73;;;2.00;;
75009;SDS011;63564;46.840;18.336;2023-01-10T12:19:22;4.40;;;2.42;;
75009;SDS011;63564;46.840;18.336;2023-01-10T12:22:25;6.20;;;3.10;;
75009;SDS011;63564;46.840;18.336;2023-01-10T12:25:50;6.67;;;2.80;;
75009;SDS011;63564;46.840;18.336;2023-01-10T12:28:52;4.35;;;2.33;;
75009;SDS011;63564;46.840;18.336;2023-01-10T12:31:56;4.60;;;2.13;;
75009;SDS011;63564;46.840;18.336;2023-01-10T12:35:02;5.30;;;2.70;;
75009;SDS011;63564;46.840;18.336;2023-01-10T12:41:54;4.78;;;2.50;;
75009;SDS011;63564;46.840;18.336;2023-01-10T12:45:25;5.13;;;2.33;;
75009;SDS011;63564;46.840;18.336;2023-01-10T12:48:49;4.38;;;2.30;;
75009;SDS011;63564;46.840;18.336;2023-01-10T12:51:58;6.17;;;2.50;;
75009;SDS011;63564;46.840;18.336;2023-01-10T12:55:03;5.40;;;2.60;;
75009;SDS011;63564;46.840;18.336;2023-01-10T12:58:04;5.03;;;2.45;;
75009;SDS011;63564;46.840;18.336;2023-01-10T13:01:06;5.85;;;2.75;;
75009;SDS011;63564;46.840;18.336;2023-01-10T13:04:29;6.00;;;3.00;;
75009;SDS011;63564;46.840;18.336;2023-01-10T13:07:33;5.53;;;2.85;;
75009;SDS011;63564;46.840;18.336;2023-01-10T13:10:36;4.45;;;2.30;;
75009;SDS011;63564;46.840;18.336;2023-01-10T13:13:44;5.80;;;2.80;;
75009;SDS011;63564;46.840;18.336;2023-01-10T13:16:55;5.90;;;2.55;;
75009;SDS011;63564;46.840;18.336;2023-01-10T13:23:22;6.65;;;3.20;;
75009;SDS011;63564;46.840;18.336;2023-01-10T13:26:45;4.33;;;2.60;;
75009;SDS011;63564;46.840;18.336;2023-01-10T13:29:47;6.93;;;3.42;;
75009;SDS011;63564;46.840;18.336;2023-01-10T13:32:51;5.55;;;2.63;;
75009;SDS011;63564;46.840;18.336;2023-01-10T13:36:05;5.07;;;2.63;;
75009;SDS011;63564;46.840;18.336;2023-01-10T13:39:20;7.30;;;3.33;;
75009;SDS011;63564;46.840;18.336;2023-01-10T13:46:12;6.88;;;3.00;;
75009;SDS011;63564;46.840;18.336;2023-01-10T13:49:22;7.57;;;4.03;;
75009;SDS011;63564;46.840;18.336;2023-01-10T13:52:29;7.53;;;3.83;;
75009;SDS011;63564;46.840;18.336;2023-01-10T13:58:38;6.60;;;3.03;;
75009;SDS011;63564;46.840;18.336;2023-01-10T14:01:59;7.85;;;3.58;;
75009;SDS011;63564;46.840;18.336;2023-01-10T14:05:19;6.37;;;3.23;;
75009;SDS011;63564;46.840;18.336;2023-01-10T14:08:20;7.10;;;4.30;;
75009;SDS011;63564;46.840;18.336;2023-01-10T14:11:22;6.15;;;2.83;;
75009;SDS011;63564;46.840;18.336;2023-01-10T14:14:33;7.30;;;3.60;;
75009;SDS011;63564;46.840;18.336;2023-01-10T14:17:37;8.93;;;4.13;;
75009;SDS011;63564;46.840;18.336;2023-01-10T14:20:39;8.55;;;4.55;;
75009;SDS011;63564;46.840;18.336;2023-01-10T14:23:41;8.25;;;4.40;;
75009;SDS011;63564;46.840;18.336;2023-01-10T14:26:47;7.82;;;3.80;;
75009;SDS011;63564;46.840;18.336;2023-01-10T14:29:50;8.20;;;4.63;;
75009;SDS011;63564;46.840;18.336;2023-01-10T14:32:55;12.02;;;5.70;;
75009;SDS011;63564;46.840;18.336;2023-01-10T14:36:00;9.80;;;5.07;;
75009;SDS011;63564;46.840;18.336;2023-01-10T14:39:05;10.38;;;5.13;;
75009;SDS011;63564;46.840;18.336;2023-01-10T14:42:07;11.27;;;5.50;;
75009;SDS011;63564;46.840;18.336;2023-01-10T14:48:50;10.83;;;5.20;;
75009;SDS011;63564;46.840;18.336;2023-01-10T14:51:53;11.10;;;5.90;;
75009;SDS011;63564;46.840;18.336;2023-01-10T14:55:08;11.30;;;5.75;;
75009;SDS011;63564;46.840;18.336;2023-01-10T14:58:11;8.77;;;4.25;;
75009;SDS011;63564;46.840;18.336;2023-01-10T15:01:20;6.63;;;3.53;;
75009;SDS011;63564;46.840;18.336;2023-01-10T15:04:25;10.88;;;5.32;;
75009;SDS011;63564;46.840;18.336;2023-01-10T15:07:27;9.63;;;4.78;;
75009;SDS011;63564;46.840;18.336;2023-01-10T15:10:29;8.63;;;4.93;;
75009;SDS011;63564;46.840;18.336;2023-01-10T15:13:34;7.60;;;3.95;;
75009;SDS011;63564;46.840;18.336;2023-01-10T15:16:39;8.45;;;4.45;;
75009;SDS011;63564;46.840;18.336;2023-01-10T15:19:40;11.60;;;7.00;;
75009;SDS011;63564;46.840;18.336;2023-01-10T15:22:42;10.48;;;6.13;;
75009;SDS011;63564;46.840;18.336;2023-01-10T15:25:54;10.48;;;5.15;;
75009;SDS011;63564;46.840;18.336;2023-01-10T15:29:12;7.10;;;3.23;;
75009;SDS011;63564;46.840;18.336;2023-01-10T15:32:28;7.55;;;3.75;;
75009;SDS011;63564;46.840;18.336;2023-01-10T15:35:33;8.85;;;4.22;;
75009;SDS011;63564;46.840;18.336;2023-01-10T15:38:34;8.70;;;4.53;;
75009;SDS011;63564;46.840;18.336;2023-01-10T15:41:37;7.80;;;4.22;;
75009;SDS011;63564;46.840;18.336;2023-01-10T15:53:59;5.40;;;3.23;;
75009;SDS011;63564;46.840;18.336;2023-01-10T15:57:30;8.45;;;3.97;;
75009;SDS011;63564;46.840;18.336;2023-01-10T16:00:31;11.52;;;4.57;;
75009;SDS011;63564;46.840;18.336;2023-01-10T16:07:04;9.10;;;4.43;;
75009;SDS011;63564;46.840;18.336;2023-01-10T16:10:07;8.27;;;4.50;;
75009;SDS011;63564;46.840;18.336;2023-01-10T16:13:23;14.00;;;5.30;;
75009;SDS011;63564;46.840;18.336;2023-01-10T16:16:26;8.95;;;5.30;;
75009;SDS011;63564;46.840;18.336;2023-01-10T16:19:27;8.48;;;4.40;;
75009;SDS011;63564;46.840;18.336;2023-01-10T16:22:28;7.50;;;4.27;;
75009;SDS011;63564;46.840;18.336;2023-01-10T16:25:34;9.38;;;6.47;;
75009;SDS011;63564;46.840;18.336;2023-01-10T16:28:37;9.52;;;5.03;;
75009;SDS011;63564;46.840;18.336;2023-01-10T16:31:38;8.27;;;4.82;;
75009;SDS011;63564;46.840;18.336;2023-01-10T16:34:39;11.63;;;4.73;;
75009;SDS011;63564;46.840;18.336;2023-01-10T16:37:39;10.13;;;5.18;;
75009;SDS011;63564;46.840;18.336;2023-01-10T16:40:40;8.70;;;3.50;;
75009;SDS011;63564;46.840;18.336;2023-01-10T16:43:43;9.60;;;4.77;;
75009;SDS011;63564;46.840;18.336;2023-01-10T16:46:43;9.90;;;5.38;;
75009;SDS011;63564;46.840;18.336;2023-01-10T16:49:44;7.50;;;4.55;;
75009;SDS011;63564;46.840;18.336;2023-01-10T16:52:45;9.68;;;5.32;;
75009;SDS011;63564;46.840;18.336;2023-01-10T16:55:50;7.80;;;4.27;;
75009;SDS011;63564;46.840;18.336;2023-01-10T16:58:51;8.73;;;4.93;;
75009;SDS011;63564;46.840;18.336;2023-01-10T17:01:54;9.52;;;4.78;;
75009;SDS011;63564;46.840;18.336;2023-01-10T17:04:56;8.20;;;4.63;;
75009;SDS011;63564;46.840;18.336;2023-01-10T17:07:58;9.10;;;4.97;;
75009;SDS011;63564;46.840;18.336;2023-01-10T17:10:59;10.37;;;4.77;;
75009;SDS011;63564;46.840;18.336;2023-01-10T17:14:01;8.60;;;4.30;;
75009;SDS011;63564;46.840;18.336;2023-01-10T17:17:03;10.18;;;6.30;;
75009;SDS011;63564;46.840;18.336;2023-01-10T17:20:04;8.57;;;4.53;;
75009;SDS011;63564;46.840;18.336;2023-01-10T17:23:05;10.55;;;5.32;;
75009;SDS011;63564;46.840;18.336;2023-01-10T17:26:05;7.80;;;4.47;;
75009;SDS011;63564;46.840;18.336;2023-01-10T17:29:06;10.50;;;5.87;;
75009;SDS011;63564;46.840;18.336;2023-01-10T17:32:06;9.60;;;4.68;;
75009;SDS011;63564;46.840;18.336;2023-01-10T17:35:07;8.25;;;3.78;;
75009;SDS011;63564;46.840;18.336;2023-01-10T17:38:09;8.65;;;4.47;;
75009;SDS011;63564;46.840;18.336;2023-01-10T17:41:10;10.68;;;5.47;;
75009;SDS011;63564;46.840;18.336;2023-01-10T17:44:11;7.97;;;4.50;;
75009;SDS011;63564;46.840;18.336;2023-01-10T17:47:11;9.10;;;4.80;;
75009;SDS011;63564;46.840;18.336;2023-01-10T17:50:12;10.77;;;5.80;;
75009;SDS011;63564;46.840;18.336;2023-01-10T17:53:12;13.33;;;5.30;;
75009;SDS011;63564;46.840;18.336;2023-01-10T17:56:13;8.35;;;3.72;;
75009;SDS011;63564;46.840;18.336;2023-01-10T17:59:14;8.30;;;4.57;;
75009;SDS011;63564;46.840;18.336;2023-01-10T18:02:15;9.00;;;4.00;;
75009;SDS011;63564;46.840;18.336;2023-01-10T18:05:17;8.82;;;4.80;;
75009;SDS011;63564;46.840;18.336;2023-01-10T18:08:17;7.47;;;4.37;;
75009;SDS011;63564;46.840;18.336;2023-01-10T18:11:18;7.10;;;4.20;;
75009;SDS011;63564;46.840;18.336;2023-01-10T18:14:19;9.40;;;4.60;;
75009;SDS011;63564;46.840;18.336;2023-01-10T18:17:35;10.23;;;4.63;;
75009;SDS011;63564;46.840;18.336;2023-01-10T18:20:38;8.47;;;4.30;;
75009;SDS011;63564;46.840;18.336;2023-01-10T18:23:40;8.70;;;5.35;;
75009;SDS011;63564;46.840;18.336;2023-01-10T18:26:40;8.50;;;4.30;;
75009;SDS011;63564;46.840;18.336;2023-01-10T18:29:40;9.20;;;4.07;;
75009;SDS011;63564;46.840;18.336;2023-01-10T18:32:41;7.50;;;3.47;;
75009;SDS011;63564;46.840;18.336;2023-01-10T18:35:41;5.57;;;2.53;;
75009;SDS011;63564;46.840;18.336;2023-01-10T18:38:42;8.03;;;3.87;;
75009;SDS011;63564;46.840;18.336;2023-01-10T18:41:44;8.35;;;4.55;;
75009;SDS011;63564;46.840;18.336;2023-01-10T18:44:45;10.57;;;5.53;;
75009;SDS011;63564;46.840;18.336;2023-01-10T18:47:48;8.60;;;4.57;;
75009;SDS011;63564;46.840;18.336;2023-01-10T18:50:55;7.82;;;4.05;;
75009;SDS011;63564;46.840;18.336;2023-01-10T18:53:57;7.05;;;4.57;;
75009;SDS011;63564;46.840;18.336;2023-01-10T18:56:58;10.87;;;4.20;;
75009;SDS011;63564;46.840;18.336;2023-01-10T18:59:58;7.60;;;4.30;;
75009;SDS011;63564;46.840;18.336;2023-01-10T19:02:59;7.90;;;3.17;;
75009;SDS011;63564;46.840;18.336;2023-01-10T19:05:59;9.75;;;4.60;;
75009;SDS011;63564;46.840;18.336;2023-01-10T19:09:00;5.63;;;2.90;;
75009;SDS011;63564;46.840;18.336;2023-01-10T19:12:01;7.03;;;3.70;;
75009;SDS011;63564;46.840;18.336;2023-01-10T19:15:01;7.87;;;4.00;;
75009;SDS011;63564;46.840;18.336;2023-01-10T19:18:02;7.27;;;3.73;;
75009;SDS011;63564;46.840;18.336;2023-01-10T19:21:03;10.00;;;4.07;;
75009;SDS011;63564;46.840;18.336;2023-01-10T19:24:06;6.47;;;3.90;;
75009;SDS011;63564;46.840;18.336;2023-01-10T19:27:12;11.00;;;4.70;;
75009;SDS011;63564;46.840;18.336;2023-01-10T19:30:12;5.57;;;2.67;;
75009;SDS011;63564;46.840;18.336;2023-01-10T19:33:14;6.55;;;3.00;;
75009;SDS011;63564;46.840;18.336;2023-01-10T19:36:15;9.10;;;3.77;;
75009;SDS011;63564;46.840;18.336;2023-01-10T19:39:17;5.97;;;3.13;;
75009;SDS011;63564;46.840;18.336;2023-01-10T19:42:18;6.93;;;3.17;;
75009;SDS011;63564;46.840;18.336;2023-01-10T19:45:18;6.07;;;2.75;;
75009;SDS011;63564;46.840;18.336;2023-01-10T19:48:20;9.02;;;4.05;;
75009;SDS011;63564;46.840;18.336;2023-01-10T19:51:21;8.60;;;4.30;;
75009;SDS011;63564;46.840;18.336;2023-01-10T19:54:22;8.55;;;4.07;;
75009;SDS011;63564;46.840;18.336;2023-01-10T19:57:25;5.97;;;2.97;;
75009;SDS011;63564;46.840;18.336;2023-01-10T20:00:26;6.28;;;2.72;;
75009;SDS011;63564;46.840;18.336;2023-01-10T20:03:27;5.32;;;2.97;;